Chasetown, United Kingdom
Current Conditions -  °F | °C
As of 9:20 PM on Saturday 25 Oct 2014 (Local Time) from EGBB Reporting Station
Broken Clouds Broken Clouds  
Wind Chill: 11°   Ceiling: 4200
Heat Index: 11°   Visibility: 6mi
Dew Point:   Wind: 7mph
Humidity: 88%   Direction: 180°S
Pressure: 30.06"   Gusts: NA
Location:  52.67°N, 1.93°W
Report Text: EGBB 252020Z 18006KT 160V230 9999 BKN042 11/09 Q1018
Loading
Personal Weather Stations






























Interactive Weather Map
Tropical Storm Tracking
New forecast layout! Learn more

10-Day Weather Forecast

Advertisements
Track Severe Weather on mobile